createdAt,value
2023-08-05T00:00:49.042Z,64.01
2023-08-05T00:03:17.320Z,64.64
2023-08-05T00:05:45.727Z,68.70
2023-08-05T00:08:14.090Z,66.86
2023-08-05T00:10:48.881Z,67.07
2023-08-05T00:13:17.247Z,68.23
2023-08-05T00:15:45.586Z,69.32
2023-08-05T00:18:13.918Z,66.34
2023-08-05T00:20:42.225Z,66.33
2023-08-05T00:23:10.524Z,64.34
2023-08-05T00:25:38.792Z,66.81
2023-08-05T00:28:07.065Z,65.92
2023-08-05T00:30:35.386Z,64.29
2023-08-05T00:33:03.689Z,63.30
2023-08-05T00:35:31.979Z,64.04
2023-08-05T00:38:00.276Z,63.06
2023-08-05T00:40:28.561Z,62.55
2023-08-05T00:42:56.806Z,62.64
2023-08-05T00:45:25.307Z,62.41
2023-08-05T00:47:53.933Z,62.05
2023-08-05T00:50:23.382Z,62.26
2023-08-05T00:52:52.478Z,62.48
2023-08-05T00:55:21.064Z,62.72
2023-08-05T00:57:49.365Z,62.14
2023-08-05T01:00:17.651Z,61.83
2023-08-05T01:02:45.946Z,61.98
2023-08-05T01:05:14.344Z,61.75
2023-08-05T01:07:44.127Z,61.55
2023-08-05T01:10:12.993Z,61.11
2023-08-05T01:12:43.047Z,61.36
2023-08-05T01:15:11.416Z,61.24
2023-08-05T01:17:39.852Z,61.49
2023-08-05T01:20:11.417Z,61.68
2023-08-05T01:22:45.170Z,62.00
2023-08-05T01:25:32.725Z,62.10
2023-08-05T01:28:03.329Z,63.64
2023-08-05T01:30:33.203Z,62.47
2023-08-05T01:33:05.118Z,62.88
2023-08-05T01:35:33.598Z,62.39
2023-08-05T01:38:01.951Z,63.11
2023-08-05T01:40:30.345Z,63.91
2023-08-05T01:43:03.767Z,63.97
2023-08-05T01:45:34.620Z,62.68
2023-08-05T01:48:02.872Z,62.59
2023-08-05T01:50:31.667Z,62.16
2023-08-05T01:52:59.996Z,62.16
2023-08-05T01:55:29.124Z,62.40
2023-08-05T01:57:57.385Z,62.81
2023-08-05T02:00:25.760Z,62.45
2023-08-05T02:02:54.299Z,62.09
2023-08-05T02:05:22.932Z,62.01
2023-08-05T02:07:51.356Z,61.89
2023-08-05T02:10:19.731Z,61.62
2023-08-05T02:12:47.990Z,61.86
2023-08-05T02:15:16.328Z,70.68
2023-08-05T02:17:44.602Z,66.93
2023-08-05T02:20:13.084Z,64.84
2023-08-05T02:22:41.393Z,63.84
2023-08-05T02:25:09.741Z,63.11
2023-08-05T02:27:38.083Z,63.02
2023-08-05T02:30:07.500Z,63.27
2023-08-05T02:32:36.140Z,62.79
2023-08-05T02:35:04.798Z,62.72
2023-08-05T02:37:33.111Z,62.50
2023-08-05T02:40:01.385Z,62.90
2023-08-05T02:42:29.728Z,62.44
2023-08-05T02:44:59.351Z,62.16
2023-08-05T02:47:27.719Z,61.79
2023-08-05T02:49:57.462Z,61.91
2023-08-05T02:52:26.475Z,61.84
2023-08-05T02:54:54.845Z,62.05
2023-08-05T02:57:23.114Z,62.99
2023-08-05T02:59:51.479Z,62.89
2023-08-05T03:02:19.725Z,62.75
2023-08-05T03:04:47.974Z,63.00
2023-08-05T03:07:16.257Z,63.47
2023-08-05T03:09:44.620Z,63.61
2023-08-05T03:12:13.148Z,63.27
2023-08-05T03:14:41.453Z,64.09
2023-08-05T03:17:11.894Z,64.15
2023-08-05T03:19:40.755Z,65.22
2023-08-05T03:22:10.263Z,68.75
2023-08-05T03:24:43.584Z,67.00
2023-08-05T03:27:11.949Z,71.67
2023-08-05T03:29:41.837Z,71.37
2023-08-05T03:32:12.540Z,77.96
2023-08-05T03:34:41.833Z,78.37
2023-08-05T03:37:10.313Z,75.49
2023-08-05T03:39:39.137Z,88.84
2023-08-05T03:42:07.727Z,100.00
2023-08-05T03:44:36.169Z,100.00
2023-08-05T03:47:04.733Z,100.00
2023-08-05T03:49:33.007Z,100.00
2023-08-05T03:52:01.311Z,100.00
2023-08-05T03:54:29.635Z,100.00
2023-08-05T03:57:00.259Z,100.00
2023-08-05T03:59:29.100Z,100.00
2023-08-05T04:01:59.983Z,100.00
2023-08-05T04:04:30.351Z,100.00
2023-08-05T04:06:58.656Z,100.00
2023-08-05T04:09:26.936Z,100.00
2023-08-05T04:11:58.499Z,100.00
2023-08-05T04:14:26.820Z,100.00
2023-08-05T04:16:56.349Z,100.00
2023-08-05T04:19:25.106Z,100.00
2023-08-05T04:21:53.914Z,100.00
2023-08-05T04:24:25.291Z,100.00
2023-08-05T04:26:54.364Z,100.00
2023-08-05T04:29:25.867Z,100.00
2023-08-05T04:31:54.574Z,100.00
2023-08-05T04:34:23.085Z,100.00
2023-08-05T04:36:53.249Z,100.00
2023-08-05T04:39:22.784Z,100.00
2023-08-05T04:41:51.083Z,100.00
2023-08-05T04:44:19.484Z,100.00
2023-08-05T04:46:47.929Z,100.00
2023-08-05T04:49:16.287Z,100.00
2023-08-05T04:51:44.574Z,100.00
2023-08-05T04:54:12.825Z,100.00
2023-08-05T04:56:41.188Z,100.00
2023-08-05T04:59:09.431Z,100.00
2023-08-05T05:01:37.705Z,100.00
2023-08-05T05:04:06.014Z,100.00
2023-08-05T05:06:34.335Z,100.00
2023-08-05T05:09:02.645Z,100.00
2023-08-05T05:11:30.963Z,100.00
2023-08-05T05:13:59.258Z,100.00
2023-08-05T05:16:27.771Z,100.00
2023-08-05T05:18:56.054Z,100.00
2023-08-05T05:21:24.359Z,100.00
2023-08-05T05:23:52.638Z,100.00
2023-08-05T05:26:20.929Z,100.00
2023-08-05T05:28:49.175Z,100.00
2023-08-05T05:31:17.444Z,100.00
2023-08-05T05:33:48.690Z,100.00
2023-08-05T05:36:17.004Z,100.00
2023-08-05T05:38:45.289Z,100.00
2023-08-05T05:41:13.572Z,100.00
2023-08-05T05:43:41.848Z,100.00
2023-08-05T05:46:10.730Z,100.00
2023-08-05T05:48:39.035Z,100.00
2023-08-05T05:51:07.299Z,100.00
2023-08-05T05:53:35.827Z,100.00
2023-08-05T05:56:06.079Z,100.00
2023-08-05T05:58:36.313Z,100.00
2023-08-05T06:01:04.707Z,100.00
2023-08-05T06:03:35.221Z,100.00
2023-08-05T06:06:03.751Z,100.00
2023-08-05T06:08:32.342Z,100.00
2023-08-05T06:11:08.237Z,100.00
2023-08-05T06:13:36.605Z,100.00
2023-08-05T06:16:05.687Z,100.00
2023-08-05T06:18:34.016Z,100.00
2023-08-05T06:21:27.269Z,100.00
2023-08-05T06:23:55.637Z,100.00
2023-08-05T06:26:40.328Z,100.00
2023-08-05T06:29:08.661Z,100.00
2023-08-05T06:31:39.958Z,100.00
2023-08-05T06:34:08.251Z,100.00
2023-08-05T06:36:36.513Z,100.00
2023-08-05T06:39:04.836Z,100.00
2023-08-05T06:41:33.076Z,100.00
2023-08-05T06:44:01.358Z,100.00
2023-08-05T06:46:32.671Z,100.00
2023-08-05T06:49:01.043Z,100.00
2023-08-05T06:51:29.425Z,100.00
2023-08-05T06:53:57.791Z,100.00
2023-08-05T06:56:26.156Z,100.00
2023-08-05T06:58:54.394Z,100.00
2023-08-05T07:01:22.886Z,100.00
2023-08-05T07:03:51.516Z,100.00
2023-08-05T07:06:24.574Z,100.00
2023-08-05T07:08:52.947Z,100.00
2023-08-05T07:11:21.755Z,100.00
2023-08-05T07:13:51.674Z,100.00
2023-08-05T07:16:20.080Z,100.00
2023-08-05T07:19:07.567Z,100.00
2023-08-05T07:21:36.967Z,100.00
2023-08-05T07:24:05.439Z,100.00
2023-08-05T07:26:35.816Z,100.00
2023-08-05T07:29:04.139Z,100.00
2023-08-05T07:31:57.509Z,100.00
2023-08-05T07:34:31.585Z,100.00
2023-08-05T07:37:00.564Z,100.00
2023-08-05T07:39:35.021Z,100.00
2023-08-05T07:42:06.996Z,100.00
2023-08-05T07:44:58.997Z,100.00
2023-08-05T07:47:53.132Z,70.29
2023-08-05T07:50:23.925Z,69.42
2023-08-05T07:53:20.961Z,70.05
2023-08-05T07:55:49.477Z,70.33
2023-08-05T07:58:20.494Z,70.78
2023-08-05T08:00:49.037Z,69.95
2023-08-05T08:03:17.330Z,70.43
2023-08-05T08:05:45.674Z,70.21
2023-08-05T08:08:13.978Z,70.18
2023-08-05T08:11:07.061Z,70.71
2023-08-05T08:13:48.746Z,70.38
2023-08-05T08:16:42.087Z,70.60
2023-08-05T08:19:19.967Z,69.97
2023-08-05T08:22:13.298Z,70.65
2023-08-05T08:24:41.681Z,69.43
2023-08-05T08:27:10.040Z,68.88
2023-08-05T08:29:49.705Z,68.53
2023-08-05T08:32:18.064Z,100.00
2023-08-05T08:34:46.288Z,100.00
2023-08-05T08:37:14.592Z,100.00
2023-08-05T08:39:42.975Z,100.00
2023-08-05T08:42:11.286Z,100.00
2023-08-05T08:44:40.973Z,100.00
2023-08-05T08:47:09.466Z,100.00
2023-08-05T08:49:38.448Z,100.00
2023-08-05T08:52:08.633Z,100.00
2023-08-05T08:54:37.207Z,100.00
2023-08-05T08:57:06.732Z,100.00
2023-08-05T08:59:35.198Z,100.00
2023-08-05T09:02:04.795Z,100.00
2023-08-05T09:04:36.714Z,100.00
2023-08-05T09:07:05.478Z,100.00
2023-08-05T09:09:34.929Z,100.00
2023-08-05T09:12:04.311Z,100.00
2023-08-05T09:14:33.108Z,100.00
2023-08-05T09:17:03.634Z,100.00
2023-08-05T09:19:32.338Z,100.00
2023-08-05T09:22:06.811Z,100.00
2023-08-05T09:24:36.263Z,100.00
2023-08-05T09:27:18.896Z,100.00
2023-08-05T09:29:50.729Z,100.00
2023-08-05T09:32:37.038Z,100.00
2023-08-05T09:35:30.924Z,100.00
2023-08-05T09:38:01.543Z,100.00
2023-08-05T09:40:37.804Z,100.00
2023-08-05T09:43:09.097Z,100.00
2023-08-05T09:45:39.897Z,100.00
2023-08-05T09:48:35.887Z,100.00
2023-08-05T09:51:07.707Z,100.00
2023-08-05T09:54:00.073Z,100.00
2023-08-05T09:56:31.570Z,100.00
2023-08-05T09:59:16.408Z,100.00
2023-08-05T10:01:50.154Z,100.00
2023-08-05T10:04:22.122Z,100.00
2023-08-05T10:06:52.914Z,100.00
2023-08-05T10:09:21.411Z,100.00
2023-08-05T10:11:50.308Z,100.00
2023-08-05T10:14:23.994Z,100.00
2023-08-05T10:16:53.377Z,100.00
2023-08-05T10:19:29.997Z,100.00
2023-08-05T10:22:11.823Z,100.00
2023-08-05T10:25:02.877Z,100.00
2023-08-05T10:27:35.861Z,100.00
2023-08-05T10:30:20.622Z,100.00
2023-08-05T10:32:54.797Z,100.00
2023-08-05T10:35:44.118Z,100.00
2023-08-05T10:38:43.907Z,100.00
2023-08-05T11:40:57.240Z,37.01
2023-08-05T13:23:40.820Z,42.02
2023-08-05T13:26:09.325Z,43.37
2023-08-05T13:28:37.645Z,43.76
2023-08-05T13:31:06.641Z,42.05
2023-08-05T13:33:36.951Z,41.40
2023-08-05T13:36:06.907Z,41.55
2023-08-05T13:38:35.255Z,40.99
2023-08-05T13:41:03.575Z,41.95
2023-08-05T13:43:32.065Z,40.29
2023-08-05T13:46:03.237Z,39.38
2023-08-05T13:48:56.394Z,36.08
2023-08-05T13:51:42.147Z,38.93
2023-08-05T13:54:16.305Z,36.99
2023-08-05T13:56:55.016Z,36.70
2023-08-05T13:59:23.389Z,36.56
2023-08-05T16:02:44.282Z,43.64
2023-08-05T16:05:13.346Z,43.60
2023-08-05T16:07:41.705Z,43.49
2023-08-05T16:10:10.399Z,43.76
2023-08-05T16:12:38.819Z,44.77
2023-08-05T16:15:07.769Z,48.27
2023-08-05T16:17:36.110Z,48.99
2023-08-05T16:20:05.099Z,50.99
2023-08-05T16:22:33.598Z,53.88
2023-08-05T16:25:03.585Z,57.79
2023-08-05T16:27:32.461Z,59.81
2023-08-05T16:30:00.739Z,62.25
2023-08-05T16:32:29.401Z,69.94
2023-08-05T16:34:58.956Z,74.79
2023-08-05T16:37:27.271Z,77.68
2023-08-05T16:39:55.608Z,77.68
2023-08-05T16:42:23.906Z,100.00
2023-08-05T16:44:52.239Z,100.00
2023-08-05T16:47:20.528Z,100.00
2023-08-05T16:49:48.807Z,100.00
2023-08-05T16:52:17.316Z,100.00
2023-08-05T16:54:47.253Z,100.00
2023-08-05T16:57:15.621Z,100.00
2023-08-05T16:59:43.892Z,100.00
2023-08-05T17:02:12.171Z,100.00
2023-08-05T17:04:40.481Z,100.00
2023-08-05T17:07:08.767Z,100.00
2023-08-05T17:09:37.090Z,100.00
2023-08-05T17:12:05.738Z,100.00
2023-08-05T17:14:34.137Z,100.00
2023-08-05T17:17:03.448Z,100.00
2023-08-05T17:19:32.684Z,100.00
2023-08-05T17:22:01.056Z,100.00
2023-08-05T17:24:29.394Z,100.00
2023-08-05T17:26:57.669Z,100.00
2023-08-05T17:29:26.054Z,100.00
2023-08-05T17:31:54.542Z,100.00
2023-08-05T17:34:23.021Z,100.00
2023-08-05T17:36:51.313Z,100.00
2023-08-05T17:39:19.888Z,100.00
2023-08-05T17:41:48.171Z,100.00
2023-08-05T17:44:16.931Z,100.00
2023-08-05T17:46:48.138Z,100.00
2023-08-05T17:49:16.456Z,100.00
2023-08-05T17:51:44.880Z,100.00
2023-08-05T17:54:13.808Z,100.00
2023-08-05T17:56:43.013Z,100.00
2023-08-05T17:59:13.859Z,100.00
2023-08-05T18:01:42.339Z,100.00
2023-08-05T18:04:11.460Z,100.00
2023-08-05T18:06:39.770Z,100.00
2023-08-05T18:09:08.195Z,100.00
2023-08-05T18:11:36.562Z,100.00
2023-08-05T18:14:04.893Z,100.00
2023-08-05T18:16:33.365Z,100.00
2023-08-05T18:19:01.848Z,100.00
2023-08-05T18:21:30.136Z,100.00
2023-08-05T18:23:58.567Z,100.00
2023-08-05T18:26:26.897Z,100.00
2023-08-05T18:28:55.191Z,100.00
2023-08-05T18:31:23.557Z,100.00
2023-08-05T18:33:52.264Z,100.00
2023-08-05T18:36:22.075Z,100.00
2023-08-05T18:38:50.381Z,100.00
2023-08-05T18:41:18.644Z,85.23
2023-08-05T18:43:46.953Z,86.23
2023-08-05T18:46:15.233Z,81.30
2023-08-05T18:48:43.648Z,77.93
2023-08-05T18:51:11.987Z,84.48
2023-08-05T18:53:41.300Z,85.66
2023-08-05T18:56:11.514Z,82.37
2023-08-05T18:58:39.827Z,77.92
2023-08-05T19:01:08.727Z,75.24
2023-08-05T19:03:38.534Z,87.07
2023-08-05T19:06:06.849Z,91.92
2023-08-05T19:08:35.223Z,83.16
2023-08-05T19:11:03.486Z,78.24
2023-08-05T19:13:31.775Z,85.21
2023-08-05T19:16:04.290Z,77.43
2023-08-05T19:18:36.331Z,86.49
2023-08-05T19:21:09.897Z,81.13
2023-08-05T19:23:38.217Z,77.97
2023-08-05T19:26:10.058Z,76.22
2023-08-05T19:28:38.841Z,84.82
2023-08-05T19:31:10.509Z,81.81
2023-08-05T19:33:41.863Z,82.48
2023-08-05T19:36:15.917Z,80.97
2023-08-05T19:38:45.439Z,81.60
2023-08-05T19:41:13.865Z,79.64
2023-08-05T19:43:42.553Z,80.99
2023-08-05T19:46:13.823Z,82.14
2023-08-05T19:48:45.066Z,78.91
2023-08-05T19:51:15.077Z,79.36
2023-08-05T19:53:44.583Z,76.69
2023-08-05T19:56:12.933Z,74.22
2023-08-05T19:58:41.585Z,83.29
2023-08-05T20:01:10.556Z,80.45
2023-08-05T20:03:40.046Z,77.87
2023-08-05T20:06:08.848Z,75.36
2023-08-05T20:08:37.183Z,79.32
2023-08-05T20:11:05.635Z,86.92
2023-08-05T20:13:33.906Z,81.27
2023-08-05T20:16:03.062Z,86.91
2023-08-05T20:18:31.440Z,76.82
2023-08-05T20:21:00.046Z,79.46
2023-08-05T20:23:29.899Z,79.11
2023-08-05T20:25:59.520Z,78.01
2023-08-05T20:28:27.824Z,77.13
2023-08-05T20:30:56.239Z,80.15
2023-08-05T20:33:24.538Z,78.13
2023-08-05T20:35:52.881Z,77.05
2023-08-05T20:38:21.453Z,85.53
2023-08-05T20:40:49.763Z,84.41
2023-08-05T20:43:18.097Z,84.85
2023-08-05T20:45:46.358Z,81.12
2023-08-05T20:48:15.056Z,85.15
2023-08-05T20:50:43.397Z,86.23
2023-08-05T20:53:13.307Z,82.02
2023-08-05T20:55:41.629Z,81.17
2023-08-05T20:58:10.031Z,79.78
2023-08-05T21:00:40.044Z,80.48
2023-08-05T21:03:08.657Z,79.12
2023-08-05T21:05:37.165Z,80.28
2023-08-05T21:08:05.636Z,78.65
2023-08-05T21:10:33.881Z,74.33
2023-08-05T21:13:02.142Z,76.68
2023-08-05T21:15:30.497Z,83.81
2023-08-05T21:17:58.938Z,79.92
2023-08-05T21:20:27.196Z,77.39
2023-08-05T21:22:55.456Z,74.57
2023-08-05T21:25:28.473Z,83.58
2023-08-05T21:27:56.744Z,86.37
2023-08-05T21:30:26.262Z,79.23
2023-08-05T21:32:57.233Z,82.13
2023-08-05T21:35:25.540Z,79.68
2023-08-05T21:37:54.022Z,81.85
2023-08-05T21:40:22.315Z,78.39
2023-08-05T21:42:50.642Z,77.30
2023-08-05T21:45:19.005Z,75.95
2023-08-05T21:47:47.289Z,84.74
2023-08-05T21:50:15.734Z,78.00
2023-08-05T21:52:44.844Z,74.23
2023-08-05T21:55:13.111Z,75.48
2023-08-05T21:57:41.800Z,77.07
2023-08-05T22:00:13.391Z,73.89
2023-08-05T22:02:42.687Z,75.50
2023-08-05T22:05:11.159Z,85.51
2023-08-05T22:07:39.461Z,79.54
2023-08-05T22:10:08.246Z,77.18
2023-08-05T22:12:36.556Z,76.90
2023-08-05T22:15:06.772Z,74.46
2023-08-05T22:17:35.199Z,73.11
2023-08-05T22:20:04.540Z,73.83
2023-08-05T22:22:33.253Z,80.33
2023-08-05T22:25:02.786Z,75.70
2023-08-05T22:27:31.463Z,76.15
2023-08-05T22:29:59.948Z,79.15
2023-08-05T22:32:28.274Z,75.98
2023-08-05T22:34:56.598Z,76.37
2023-08-05T22:37:25.662Z,78.33
2023-08-05T22:39:54.389Z,81.33
2023-08-05T22:42:23.274Z,77.73
2023-08-05T22:44:55.235Z,77.30
2023-08-05T22:47:23.979Z,76.48
2023-08-05T22:49:52.455Z,76.80
2023-08-05T22:52:20.792Z,75.74
2023-08-05T22:54:49.151Z,77.45
2023-08-05T22:57:17.588Z,77.86
2023-08-05T22:59:45.870Z,78.36
2023-08-05T23:02:14.222Z,78.19
2023-08-05T23:04:42.465Z,74.18
2023-08-05T23:07:10.764Z,76.10
2023-08-05T23:09:39.087Z,73.88
2023-08-05T23:12:08.181Z,74.04
2023-08-05T23:14:36.523Z,73.36
2023-08-05T23:17:04.917Z,77.46
2023-08-05T23:19:33.247Z,76.18
2023-08-05T23:22:01.514Z,75.36
2023-08-05T23:24:29.901Z,74.62
2023-08-05T23:26:58.170Z,74.43
2023-08-05T23:29:27.763Z,80.67
2023-08-05T23:31:56.085Z,82.34
2023-08-05T23:34:24.396Z,77.78
2023-08-05T23:36:54.332Z,75.37
2023-08-05T23:39:22.633Z,80.15
2023-08-05T23:41:51.357Z,78.87
2023-08-05T23:44:19.807Z,89.91
2023-08-05T23:46:48.143Z,83.04
2023-08-05T23:49:16.619Z,80.88
2023-08-05T23:51:44.935Z,78.78
2023-08-05T23:54:13.282Z,76.69
2023-08-05T23:56:41.568Z,74.47
2023-08-05T23:59:09.826Z,76.53
